sensor_id;sensor_type;location;lat;lon;timestamp;temperature;humidity
9544;DHT22;30418;51.45933468;7.33152330;2022-11-04T00:02:03;15.10;63.50
9544;DHT22;30418;51.45933468;7.33152330;2022-11-04T00:04:31;15.10;63.60
9544;DHT22;30418;51.45933468;7.33152330;2022-11-04T00:07:00;15.10;63.60
9544;DHT22;30418;51.45933468;7.33152330;2022-11-04T00:09:49;15.10;63.60
9544;DHT22;30418;51.45933468;7.33152330;2022-11-04T00:12:17;15.10;63.60
9544;DHT22;30418;51.45933468;7.33152330;2022-11-04T00:14:51;15.10;63.60
9544;DHT22;30418;51.45933468;7.33152330;2022-11-04T00:17:20;15.10;63.60
9544;DHT22;30418;51.45933468;7.33152330;2022-11-04T00:19:50;15.00;63.50
9544;DHT22;30418;51.45933468;7.33152330;2022-11-04T00:22:39;15.00;63.40
9544;DHT22;30418;51.45933468;7.33152330;2022-11-04T00:25:26;15.00;64.00
9544;DHT22;30418;51.45933468;7.33152330;2022-11-04T00:28:14;15.00;63.30
9544;DHT22;30418;51.45933468;7.33152330;2022-11-04T00:31:03;15.00;63.40
9544;DHT22;30418;51.45933468;7.33152330;2022-11-04T00:33:49;14.90;63.30
9544;DHT22;30418;51.45933468;7.33152330;2022-11-04T00:36:18;14.90;63.20
9544;DHT22;30418;51.45933468;7.33152330;2022-11-04T00:38:47;14.90;63.20
9544;DHT22;30418;51.45933468;7.33152330;2022-11-04T00:41:16;14.90;63.10
9544;DHT22;30418;51.45933468;7.33152330;2022-11-04T00:43:55;14.90;63.00
9544;DHT22;30418;51.45933468;7.33152330;2022-11-04T00:46:25;14.90;63.00
9544;DHT22;30418;51.45933468;7.33152330;2022-11-04T00:48:55;14.90;62.90
9544;DHT22;30418;51.45933468;7.33152330;2022-11-04T00:51:24;14.90;62.90
9544;DHT22;30418;51.45933468;7.33152330;2022-11-04T00:53:53;14.90;62.90
9544;DHT22;30418;51.45933468;7.33152330;2022-11-04T00:56:21;14.80;62.80
9544;DHT22;30418;51.45933468;7.33152330;2022-11-04T00:58:50;14.80;62.70
9544;DHT22;30418;51.45933468;7.33152330;2022-11-04T01:01:18;14.80;62.70
9544;DHT22;30418;51.45933468;7.33152330;2022-11-04T01:03:49;14.80;62.80
9544;DHT22;30418;51.45933468;7.33152330;2022-11-04T01:06:22;14.80;62.70
9544;DHT22;30418;51.45933468;7.33152330;2022-11-04T01:08:54;14.70;62.60
9544;DHT22;30418;51.45933468;7.33152330;2022-11-04T01:11:23;14.70;62.60
9544;DHT22;30418;51.45933468;7.33152330;2022-11-04T01:13:54;14.70;62.60
9544;DHT22;30418;51.45933468;7.33152330;2022-11-04T01:16:24;14.70;62.60
9544;DHT22;30418;51.45933468;7.33152330;2022-11-04T01:18:58;14.70;62.60
9544;DHT22;30418;51.45933468;7.33152330;2022-11-04T01:21:28;14.70;62.60
9544;DHT22;30418;51.45933468;7.33152330;2022-11-04T01:23:58;14.70;62.60
9544;DHT22;30418;51.45933468;7.33152330;2022-11-04T01:26:28;14.70;62.60
9544;DHT22;30418;51.45933468;7.33152330;2022-11-04T01:28:57;14.70;62.60
9544;DHT22;30418;51.45933468;7.33152330;2022-11-04T01:31:27;14.70;62.60
9544;DHT22;30418;51.45933468;7.33152330;2022-11-04T01:33:57;14.70;62.60
9544;DHT22;30418;51.45933468;7.33152330;2022-11-04T01:36:28;14.70;63.50
9544;DHT22;30418;51.45933468;7.33152330;2022-11-04T01:38:57;14.60;62.50
9544;DHT22;30418;51.45933468;7.33152330;2022-11-04T01:41:28;14.70;62.60
9544;DHT22;30418;51.45933468;7.33152330;2022-11-04T01:43:58;14.60;62.60
9544;DHT22;30418;51.45933468;7.33152330;2022-11-04T01:46:36;14.60;62.60
9544;DHT22;30418;51.45933468;7.33152330;2022-11-04T01:49:18;14.60;62.60
9544;DHT22;30418;51.45933468;7.33152330;2022-11-04T01:51:55;14.60;62.60
9544;DHT22;30418;51.45933468;7.33152330;2022-11-04T01:54:28;14.60;62.60
9544;DHT22;30418;51.45933468;7.33152330;2022-11-04T01:56:58;14.60;62.60
9544;DHT22;30418;51.45933468;7.33152330;2022-11-04T01:59:33;14.60;62.70
9544;DHT22;30418;51.45933468;7.33152330;2022-11-04T02:02:03;14.60;62.70
9544;DHT22;30418;51.45933468;7.33152330;2022-11-04T02:04:33;14.60;62.70
9544;DHT22;30418;51.45933468;7.33152330;2022-11-04T02:07:05;14.60;62.70
9544;DHT22;30418;51.45933468;7.33152330;2022-11-04T02:09:36;14.60;62.80
9544;DHT22;30418;51.45933468;7.33152330;2022-11-04T02:12:05;14.60;62.80
9544;DHT22;30418;51.45933468;7.33152330;2022-11-04T02:14:52;14.60;62.70
9544;DHT22;30418;51.45933468;7.33152330;2022-11-04T02:17:32;14.60;62.80
9544;DHT22;30418;51.45933468;7.33152330;2022-11-04T02:20:28;14.60;63.10
9544;DHT22;30418;51.45933468;7.33152330;2022-11-04T02:23:49;14.60;62.90
9544;DHT22;30418;51.45933468;7.33152330;2022-11-04T02:27:05;14.60;63.10
9544;DHT22;30418;51.45933468;7.33152330;2022-11-04T02:29:49;14.50;63.00
9544;DHT22;30418;51.45933468;7.33152330;2022-11-04T02:35:53;14.50;62.90
9544;DHT22;30418;51.45933468;7.33152330;2022-11-04T02:38:32;14.50;62.70
9544;DHT22;30418;51.45933468;7.33152330;2022-11-04T02:41:14;14.50;62.70
9544;DHT22;30418;51.45933468;7.33152330;2022-11-04T02:43:52;14.40;62.60
9544;DHT22;30418;51.45933468;7.33152330;2022-11-04T02:46:33;14.40;62.60
9544;DHT22;30418;51.45933468;7.33152330;2022-11-04T02:49:07;14.40;62.70
9544;DHT22;30418;51.45933468;7.33152330;2022-11-04T02:51:41;14.40;62.70
9544;DHT22;30418;51.45933468;7.33152330;2022-11-04T02:54:18;14.40;62.70
9544;DHT22;30418;51.45933468;7.33152330;2022-11-04T02:56:50;14.40;62.70
9544;DHT22;30418;51.45933468;7.33152330;2022-11-04T02:59:23;14.30;62.60
9544;DHT22;30418;51.45933468;7.33152330;2022-11-04T03:01:58;14.40;62.70
9544;DHT22;30418;51.45933468;7.33152330;2022-11-04T03:04:32;14.40;62.70
9544;DHT22;30418;51.45933468;7.33152330;2022-11-04T03:07:04;14.40;62.70
9544;DHT22;30418;51.45933468;7.33152330;2022-11-04T03:09:40;14.30;62.60
9544;DHT22;30418;51.45933468;7.33152330;2022-11-04T03:12:16;14.30;62.70
9544;DHT22;30418;51.45933468;7.33152330;2022-11-04T03:14:51;14.30;62.60
9544;DHT22;30418;51.45933468;7.33152330;2022-11-04T03:17:40;14.30;62.60
9544;DHT22;30418;51.45933468;7.33152330;2022-11-04T03:20:16;14.30;62.70
9544;DHT22;30418;51.45933468;7.33152330;2022-11-04T03:22:47;14.30;62.50
9544;DHT22;30418;51.45933468;7.33152330;2022-11-04T03:25:16;14.30;62.40
9544;DHT22;30418;51.45933468;7.33152330;2022-11-04T03:27:48;14.30;62.40
9544;DHT22;30418;51.45933468;7.33152330;2022-11-04T03:30:22;14.20;62.40
9544;DHT22;30418;51.45933468;7.33152330;2022-11-04T03:32:57;14.20;62.40
9544;DHT22;30418;51.45933468;7.33152330;2022-11-04T03:35:30;14.20;62.50
9544;DHT22;30418;51.45933468;7.33152330;2022-11-04T03:37:59;14.20;62.40
9544;DHT22;30418;51.45933468;7.33152330;2022-11-04T03:40:27;14.20;62.40
9544;DHT22;30418;51.45933468;7.33152330;2022-11-04T03:42:59;14.10;62.30
9544;DHT22;30418;51.45933468;7.33152330;2022-11-04T03:45:30;14.20;62.40
9544;DHT22;30418;51.45933468;7.33152330;2022-11-04T03:48:00;14.10;62.20
9544;DHT22;30418;51.45933468;7.33152330;2022-11-04T03:50:31;14.10;62.20
9544;DHT22;30418;51.45933468;7.33152330;2022-11-04T03:53:01;14.10;63.00
9544;DHT22;30418;51.45933468;7.33152330;2022-11-04T03:55:35;14.10;62.10
9544;DHT22;30418;51.45933468;7.33152330;2022-11-04T03:58:19;14.10;62.30
9544;DHT22;30418;51.45933468;7.33152330;2022-11-04T04:00:59;14.10;62.30
9544;DHT22;30418;51.45933468;7.33152330;2022-11-04T04:03:35;14.00;62.10
9544;DHT22;30418;51.45933468;7.33152330;2022-11-04T04:06:14;14.00;62.10
9544;DHT22;30418;51.45933468;7.33152330;2022-11-04T04:08:46;14.00;62.10
9544;DHT22;30418;51.45933468;7.33152330;2022-11-04T04:11:20;14.00;62.00
9544;DHT22;30418;51.45933468;7.33152330;2022-11-04T04:13:55;14.00;62.00
9544;DHT22;30418;51.45933468;7.33152330;2022-11-04T04:16:31;14.00;62.10
9544;DHT22;30418;51.45933468;7.33152330;2022-11-04T04:19:05;13.90;61.90
9544;DHT22;30418;51.45933468;7.33152330;2022-11-04T04:21:40;14.00;62.10
9544;DHT22;30418;51.45933468;7.33152330;2022-11-04T04:24:11;13.90;62.00
9544;DHT22;30418;51.45933468;7.33152330;2022-11-04T04:27:00;13.90;62.00
9544;DHT22;30418;51.45933468;7.33152330;2022-11-04T04:29:49;13.90;62.00
9544;DHT22;30418;51.45933468;7.33152330;2022-11-04T04:32:19;13.90;62.10
9544;DHT22;30418;51.45933468;7.33152330;2022-11-04T04:34:50;13.90;62.10
9544;DHT22;30418;51.45933468;7.33152330;2022-11-04T04:37:41;13.90;62.10
9544;DHT22;30418;51.45933468;7.33152330;2022-11-04T04:40:13;13.90;62.00
9544;DHT22;30418;51.45933468;7.33152330;2022-11-04T04:43:01;13.80;62.00
9544;DHT22;30418;51.45933468;7.33152330;2022-11-04T04:45:49;13.90;62.00
9544;DHT22;30418;51.45933468;7.33152330;2022-11-04T04:48:19;13.80;62.00
9544;DHT22;30418;51.45933468;7.33152330;2022-11-04T04:50:51;13.80;62.00
9544;DHT22;30418;51.45933468;7.33152330;2022-11-04T04:53:23;13.80;62.00
9544;DHT22;30418;51.45933468;7.33152330;2022-11-04T04:55:51;13.80;62.00
9544;DHT22;30418;51.45933468;7.33152330;2022-11-04T04:58:19;13.80;62.00
9544;DHT22;30418;51.45933468;7.33152330;2022-11-04T05:00:48;13.80;62.00
9544;DHT22;30418;51.45933468;7.33152330;2022-11-04T05:03:16;13.80;61.90
9544;DHT22;30418;51.45933468;7.33152330;2022-11-04T05:05:45;13.80;61.90
9544;DHT22;30418;51.45933468;7.33152330;2022-11-04T05:08:15;13.80;61.90
9544;DHT22;30418;51.45933468;7.33152330;2022-11-04T05:10:43;13.80;61.90
9544;DHT22;30418;51.45933468;7.33152330;2022-11-04T05:13:12;13.80;61.90
9544;DHT22;30418;51.45933468;7.33152330;2022-11-04T05:15:53;13.80;61.90
9544;DHT22;30418;51.45933468;7.33152330;2022-11-04T05:18:21;13.80;61.90
9544;DHT22;30418;51.45933468;7.33152330;2022-11-04T05:20:50;13.80;61.90
9544;DHT22;30418;51.45933468;7.33152330;2022-11-04T05:23:20;13.80;61.90
9544;DHT22;30418;51.45933468;7.33152330;2022-11-04T05:25:49;13.70;61.80
9544;DHT22;30418;51.45933468;7.33152330;2022-11-04T05:28:17;13.70;61.70
9544;DHT22;30418;51.45933468;7.33152330;2022-11-04T05:30:46;13.70;61.60
9544;DHT22;30418;51.45933468;7.33152330;2022-11-04T05:33:14;13.70;61.70
9544;DHT22;30418;51.45933468;7.33152330;2022-11-04T05:35:43;13.70;61.70
9544;DHT22;30418;51.45933468;7.33152330;2022-11-04T05:38:11;13.70;61.70
9544;DHT22;30418;51.45933468;7.33152330;2022-11-04T05:40:41;13.70;61.70
9544;DHT22;30418;51.45933468;7.33152330;2022-11-04T05:43:10;13.70;61.70
9544;DHT22;30418;51.45933468;7.33152330;2022-11-04T05:45:38;13.70;61.70
9544;DHT22;30418;51.45933468;7.33152330;2022-11-04T05:48:07;13.70;61.70
9544;DHT22;30418;51.45933468;7.33152330;2022-11-04T05:50:36;13.70;61.70
9544;DHT22;30418;51.45933468;7.33152330;2022-11-04T05:53:05;13.70;61.80
9544;DHT22;30418;51.45933468;7.33152330;2022-11-04T05:55:34;13.70;61.80
9544;DHT22;30418;51.45933468;7.33152330;2022-11-04T05:58:04;13.70;61.70
9544;DHT22;30418;51.45933468;7.33152330;2022-11-04T06:00:33;13.70;61.70
9544;DHT22;30418;51.45933468;7.33152330;2022-11-04T06:03:02;13.70;61.70
9544;DHT22;30418;51.45933468;7.33152330;2022-11-04T06:05:30;13.70;61.70
9544;DHT22;30418;51.45933468;7.33152330;2022-11-04T06:07:59;13.70;61.70
9544;DHT22;30418;51.45933468;7.33152330;2022-11-04T06:10:27;13.70;61.70
9544;DHT22;30418;51.45933468;7.33152330;2022-11-04T06:12:56;13.70;61.80
9544;DHT22;30418;51.45933468;7.33152330;2022-11-04T06:15:26;13.70;61.80
9544;DHT22;30418;51.45933468;7.33152330;2022-11-04T06:17:55;13.70;61.70
9544;DHT22;30418;51.45933468;7.33152330;2022-11-04T06:20:24;13.70;61.70
9544;DHT22;30418;51.45933468;7.33152330;2022-11-04T06:22:54;13.70;61.60
9544;DHT22;30418;51.45933468;7.33152330;2022-11-04T06:25:22;13.70;62.40
9544;DHT22;30418;51.45933468;7.33152330;2022-11-04T06:27:50;13.70;61.60
9544;DHT22;30418;51.45933468;7.33152330;2022-11-04T06:30:19;13.70;61.60
9544;DHT22;30418;51.45933468;7.33152330;2022-11-04T06:32:49;13.70;61.60
9544;DHT22;30418;51.45933468;7.33152330;2022-11-04T06:35:18;13.70;61.60
9544;DHT22;30418;51.45933468;7.33152330;2022-11-04T06:37:46;13.70;61.60
9544;DHT22;30418;51.45933468;7.33152330;2022-11-04T06:40:15;13.70;61.60
9544;DHT22;30418;51.45933468;7.33152330;2022-11-04T06:42:43;13.70;61.60
9544;DHT22;30418;51.45933468;7.33152330;2022-11-04T06:45:12;13.70;61.70
9544;DHT22;30418;51.45933468;7.33152330;2022-11-04T06:47:41;13.70;61.70
9544;DHT22;30418;51.45933468;7.33152330;2022-11-04T06:50:11;13.70;61.70
9544;DHT22;30418;51.45933468;7.33152330;2022-11-04T06:52:40;13.80;61.80
9544;DHT22;30418;51.45933468;7.33152330;2022-11-04T06:55:09;13.80;61.90
9544;DHT22;30418;51.45933468;7.33152330;2022-11-04T06:57:37;13.80;61.20
9544;DHT22;30418;51.45933468;7.33152330;2022-11-04T07:00:07;13.80;61.80
9544;DHT22;30418;51.45933468;7.33152330;2022-11-04T07:02:36;13.80;61.90
9544;DHT22;30418;51.45933468;7.33152330;2022-11-04T07:05:06;13.80;61.90
9544;DHT22;30418;51.45933468;7.33152330;2022-11-04T07:07:36;13.80;61.90
9544;DHT22;30418;51.45933468;7.33152330;2022-11-04T07:10:05;13.80;61.90
9544;DHT22;30418;51.45933468;7.33152330;2022-11-04T07:12:34;13.80;61.90
9544;DHT22;30418;51.45933468;7.33152330;2022-11-04T07:15:03;13.90;61.90
9544;DHT22;30418;51.45933468;7.33152330;2022-11-04T07:17:32;13.90;61.80
9544;DHT22;30418;51.45933468;7.33152330;2022-11-04T07:20:01;13.90;61.80
9544;DHT22;30418;51.45933468;7.33152330;2022-11-04T07:22:31;13.90;61.80
9544;DHT22;30418;51.45933468;7.33152330;2022-11-04T07:25:01;13.90;61.80
9544;DHT22;30418;51.45933468;7.33152330;2022-11-04T07:27:29;13.90;62.60
9544;DHT22;30418;51.45933468;7.33152330;2022-11-04T07:29:58;13.90;61.80
9544;DHT22;30418;51.45933468;7.33152330;2022-11-04T07:32:26;13.90;61.80
9544;DHT22;30418;51.45933468;7.33152330;2022-11-04T07:34:55;13.90;61.80
9544;DHT22;30418;51.45933468;7.33152330;2022-11-04T07:37:24;14.00;61.90
9544;DHT22;30418;51.45933468;7.33152330;2022-11-04T07:39:52;14.00;62.00
9544;DHT22;30418;51.45933468;7.33152330;2022-11-04T07:42:22;14.00;61.90
9544;DHT22;30418;51.45933468;7.33152330;2022-11-04T07:44:54;14.00;61.90
9544;DHT22;30418;51.45933468;7.33152330;2022-11-04T07:47:23;14.00;61.90
9544;DHT22;30418;51.45933468;7.33152330;2022-11-04T07:49:51;14.00;61.80
9544;DHT22;30418;51.45933468;7.33152330;2022-11-04T07:52:20;14.00;61.80
9544;DHT22;30418;51.45933468;7.33152330;2022-11-04T07:54:48;14.00;61.70
9544;DHT22;30418;51.45933468;7.33152330;2022-11-04T07:57:17;14.00;61.80
9544;DHT22;30418;51.45933468;7.33152330;2022-11-04T07:59:47;14.00;61.70
9544;DHT22;30418;51.45933468;7.33152330;2022-11-04T08:02:16;14.00;61.70
9544;DHT22;30418;51.45933468;7.33152330;2022-11-04T08:04:51;14.00;61.60
9544;DHT22;30418;51.45933468;7.33152330;2022-11-04T08:07:20;14.00;61.60
9544;DHT22;30418;51.45933468;7.33152330;2022-11-04T08:09:49;14.00;61.60
9544;DHT22;30418;51.45933468;7.33152330;2022-11-04T08:12:17;14.00;61.60
9544;DHT22;30418;51.45933468;7.33152330;2022-11-04T08:14:48;14.00;61.60
9544;DHT22;30418;51.45933468;7.33152330;2022-11-04T08:17:16;14.00;61.80
9544;DHT22;30418;51.45933468;7.33152330;2022-11-04T08:19:45;14.00;61.70
9544;DHT22;30418;51.45933468;7.33152330;2022-11-04T08:22:14;14.00;61.80
9544;DHT22;30418;51.45933468;7.33152330;2022-11-04T08:24:42;14.00;61.90
9544;DHT22;30418;51.45933468;7.33152330;2022-11-04T08:27:13;14.10;62.00
9544;DHT22;30418;51.45933468;7.33152330;2022-11-04T08:29:41;14.10;62.00
9544;DHT22;30418;51.45933468;7.33152330;2022-11-04T08:32:11;14.10;62.00
9544;DHT22;30418;51.45933468;7.33152330;2022-11-04T08:34:40;14.10;62.00
9544;DHT22;30418;51.45933468;7.33152330;2022-11-04T08:37:08;14.20;62.00
9544;DHT22;30418;51.45933468;7.33152330;2022-11-04T08:39:37;14.10;61.90
9544;DHT22;30418;51.45933468;7.33152330;2022-11-04T08:42:05;14.20;61.90
9544;DHT22;30418;51.45933468;7.33152330;2022-11-04T08:44:33;14.20;62.00
9544;DHT22;30418;51.45933468;7.33152330;2022-11-04T08:47:03;14.20;61.90
9544;DHT22;30418;51.45933468;7.33152330;2022-11-04T08:49:36;14.30;62.00
9544;DHT22;30418;51.45933468;7.33152330;2022-11-04T08:52:05;14.20;61.90
9544;DHT22;30418;51.45933468;7.33152330;2022-11-04T08:54:35;14.30;61.90
9544;DHT22;30418;51.45933468;7.33152330;2022-11-04T08:57:04;14.30;61.90
9544;DHT22;30418;51.45933468;7.33152330;2022-11-04T08:59:32;14.30;61.90
9544;DHT22;30418;51.45933468;7.33152330;2022-11-04T09:02:01;14.30;61.80
9544;DHT22;30418;51.45933468;7.33152330;2022-11-04T09:04:31;14.40;62.00
9544;DHT22;30418;51.45933468;7.33152330;2022-11-04T09:07:01;14.40;62.00
9544;DHT22;30418;51.45933468;7.33152330;2022-11-04T09:09:34;14.40;61.90
9544;DHT22;30418;51.45933468;7.33152330;2022-11-04T09:12:08;14.40;62.00
9544;DHT22;30418;51.45933468;7.33152330;2022-11-04T09:14:36;14.40;62.00
9544;DHT22;30418;51.45933468;7.33152330;2022-11-04T09:17:05;14.40;62.80
9544;DHT22;30418;51.45933468;7.33152330;2022-11-04T09:19:35;14.50;62.20
9544;DHT22;30418;51.45933468;7.33152330;2022-11-04T09:22:04;14.50;62.20
9544;DHT22;30418;51.45933468;7.33152330;2022-11-04T09:24:33;14.50;62.20
9544;DHT22;30418;51.45933468;7.33152330;2022-11-04T09:27:01;14.60;62.40
9544;DHT22;30418;51.45933468;7.33152330;2022-11-04T09:29:31;14.60;62.40
9544;DHT22;30418;51.45933468;7.33152330;2022-11-04T09:32:02;14.60;62.20
9544;DHT22;30418;51.45933468;7.33152330;2022-11-04T09:34:31;14.60;62.20
9544;DHT22;30418;51.45933468;7.33152330;2022-11-04T09:37:01;14.60;62.20
9544;DHT22;30418;51.45933468;7.33152330;2022-11-04T09:39:30;14.70;62.10
9544;DHT22;30418;51.45933468;7.33152330;2022-11-04T09:42:12;14.70;62.00
9544;DHT22;30418;51.45933468;7.33152330;2022-11-04T09:44:55;14.70;62.10
9544;DHT22;30418;51.45933468;7.33152330;2022-11-04T09:47:49;14.80;62.20
9544;DHT22;30418;51.45933468;7.33152330;2022-11-04T09:50:22;14.80;62.20
9544;DHT22;30418;51.45933468;7.33152330;2022-11-04T09:52:57;14.80;62.10
9544;DHT22;30418;51.45933468;7.33152330;2022-11-04T09:55:31;14.80;62.10
9544;DHT22;30418;51.45933468;7.33152330;2022-11-04T09:58:03;14.90;62.20
9544;DHT22;30418;51.45933468;7.33152330;2022-11-04T10:00:35;14.90;62.60
9544;DHT22;30418;51.45933468;7.33152330;2022-11-04T10:03:19;14.90;62.20
9544;DHT22;30418;51.45933468;7.33152330;2022-11-04T10:06:06;14.90;62.10
9544;DHT22;30418;51.45933468;7.33152330;2022-11-04T10:09:02;15.00;62.30
9544;DHT22;30418;51.45933468;7.33152330;2022-11-04T10:12:06;15.00;62.10
9544;DHT22;30418;51.45933468;7.33152330;2022-11-04T10:15:37;15.10;62.30
9544;DHT22;30418;51.45933468;7.33152330;2022-11-04T10:18:25;15.10;63.10
9544;DHT22;30418;51.45933468;7.33152330;2022-11-04T10:21:12;15.10;62.10
9544;DHT22;30418;51.45933468;7.33152330;2022-11-04T10:24:40;15.00;62.50
9544;DHT22;30418;51.45933468;7.33152330;2022-11-04T10:27:13;15.00;62.30
9544;DHT22;30418;51.45933468;7.33152330;2022-11-04T10:29:45;15.00;62.10
9544;DHT22;30418;51.45933468;7.33152330;2022-11-04T10:32:21;15.00;62.10
9544;DHT22;30418;51.45933468;7.33152330;2022-11-04T10:34:55;15.00;62.10
9544;DHT22;30418;51.45933468;7.33152330;2022-11-04T10:37:27;15.00;62.10
9544;DHT22;30418;51.45933468;7.33152330;2022-11-04T10:40:06;15.00;62.00
9544;DHT22;30418;51.45933468;7.33152330;2022-11-04T10:42:45;15.00;61.90
9544;DHT22;30418;51.45933468;7.33152330;2022-11-04T10:45:14;15.00;62.00
9544;DHT22;30418;51.45933468;7.33152330;2022-11-04T10:47:49;15.10;62.10
9544;DHT22;30418;51.45933468;7.33152330;2022-11-04T10:50:28;15.10;62.10
9544;DHT22;30418;51.45933468;7.33152330;2022-11-04T10:53:10;15.10;62.10
9544;DHT22;30418;51.45933468;7.33152330;2022-11-04T10:55:48;15.00;62.00
9544;DHT22;30418;51.45933468;7.33152330;2022-11-04T10:58:23;15.00;61.80
9544;DHT22;30418;51.45933468;7.33152330;2022-11-04T11:00:53;15.10;62.10
9544;DHT22;30418;51.45933468;7.33152330;2022-11-04T11:03:30;15.10;62.10
9544;DHT22;30418;51.45933468;7.33152330;2022-11-04T11:06:24;15.10;62.10
9544;DHT22;30418;51.45933468;7.33152330;2022-11-04T11:08:58;15.10;62.20
9544;DHT22;30418;51.45933468;7.33152330;2022-11-04T11:11:40;15.10;62.10
9544;DHT22;30418;51.45933468;7.33152330;2022-11-04T11:14:18;15.10;61.90
9544;DHT22;30418;51.45933468;7.33152330;2022-11-04T11:16:48;15.20;61.90
9544;DHT22;30418;51.45933468;7.33152330;2022-11-04T11:19:19;15.20;61.80
9544;DHT22;30418;51.45933468;7.33152330;2022-11-04T11:21:50;15.20;61.70
9544;DHT22;30418;51.45933468;7.33152330;2022-11-04T11:24:21;15.20;61.60
9544;DHT22;30418;51.45933468;7.33152330;2022-11-04T11:26:53;15.20;61.70
9544;DHT22;30418;51.45933468;7.33152330;2022-11-04T11:29:24;15.20;61.70
9544;DHT22;30418;51.45933468;7.33152330;2022-11-04T11:31:55;15.20;61.60
9544;DHT22;30418;51.45933468;7.33152330;2022-11-04T11:34:26;15.20;61.70
9544;DHT22;30418;51.45933468;7.33152330;2022-11-04T11:36:57;15.30;61.60
9544;DHT22;30418;51.45933468;7.33152330;2022-11-04T11:39:30;15.30;61.40
9544;DHT22;30418;51.45933468;7.33152330;2022-11-04T11:42:03;15.30;61.20
9544;DHT22;30418;51.45933468;7.33152330;2022-11-04T11:44:35;15.30;61.20
9544;DHT22;30418;51.45933468;7.33152330;2022-11-04T11:47:19;15.30;61.20
9544;DHT22;30418;51.45933468;7.33152330;2022-11-04T11:50:06;15.30;61.20
9544;DHT22;30418;51.45933468;7.33152330;2022-11-04T11:52:43;15.30;61.30
9544;DHT22;30418;51.45933468;7.33152330;2022-11-04T11:55:15;15.30;61.20
9544;DHT22;30418;51.45933468;7.33152330;2022-11-04T11:57:55;15.30;61.40
9544;DHT22;30418;51.45933468;7.33152330;2022-11-04T12:00:51;15.20;61.30
9544;DHT22;30418;51.45933468;7.33152330;2022-11-04T12:03:32;15.20;61.30
9544;DHT22;30418;51.45933468;7.33152330;2022-11-04T12:06:31;15.30;61.20
9544;DHT22;30418;51.45933468;7.33152330;2022-11-04T12:09:32;15.20;61.20
9544;DHT22;30418;51.45933468;7.33152330;2022-11-04T12:12:22;15.20;61.50
9544;DHT22;30418;51.45933468;7.33152330;2022-11-04T12:15:14;15.20;61.40
9544;DHT22;30418;51.45933468;7.33152330;2022-11-04T12:18:00;15.20;61.50
9544;DHT22;30418;51.45933468;7.33152330;2022-11-04T12:20:47;15.20;61.40
9544;DHT22;30418;51.45933468;7.33152330;2022-11-04T12:23:23;15.20;61.20
9544;DHT22;30418;51.45933468;7.33152330;2022-11-04T12:26:07;15.20;61.10
9544;DHT22;30418;51.45933468;7.33152330;2022-11-04T12:28:52;15.20;61.10
9544;DHT22;30418;51.45933468;7.33152330;2022-11-04T12:31:41;15.20;61.10
9544;DHT22;30418;51.45933468;7.33152330;2022-11-04T12:34:22;15.20;61.10
9544;DHT22;30418;51.45933468;7.33152330;2022-11-04T12:37:06;15.20;61.10
9544;DHT22;30418;51.45933468;7.33152330;2022-11-04T12:40:00;15.20;61.00
9544;DHT22;30418;51.45933468;7.33152330;2022-11-04T12:42:41;15.20;61.10
9544;DHT22;30418;51.45933468;7.33152330;2022-11-04T12:45:31;15.20;61.20
9544;DHT22;30418;51.45933468;7.33152330;2022-11-04T12:48:22;15.20;61.20
9544;DHT22;30418;51.45933468;7.33152330;2022-11-04T12:51:05;15.20;61.10
9544;DHT22;30418;51.45933468;7.33152330;2022-11-04T12:53:47;15.30;61.40
9544;DHT22;30418;51.45933468;7.33152330;2022-11-04T12:56:33;15.30;61.20
9544;DHT22;30418;51.45933468;7.33152330;2022-11-04T12:59:32;15.30;61.20
9544;DHT22;30418;51.45933468;7.33152330;2022-11-04T13:02:22;15.30;61.20
9544;DHT22;30418;51.45933468;7.33152330;2022-11-04T13:04:59;15.30;61.30
9544;DHT22;30418;51.45933468;7.33152330;2022-11-04T13:07:36;15.40;61.30
9544;DHT22;30418;51.45933468;7.33152330;2022-11-04T13:10:16;15.40;61.30
9544;DHT22;30418;51.45933468;7.33152330;2022-11-04T13:12:49;15.40;61.30
9544;DHT22;30418;51.45933468;7.33152330;2022-11-04T13:15:22;15.40;61.30
9544;DHT22;30418;51.45933468;7.33152330;2022-11-04T13:17:55;15.50;61.40
9544;DHT22;30418;51.45933468;7.33152330;2022-11-04T13:20:35;15.50;61.30
9544;DHT22;30418;51.45933468;7.33152330;2022-11-04T13:23:16;15.40;61.00
9544;DHT22;30418;51.45933468;7.33152330;2022-11-04T13:25:47;15.50;61.10
9544;DHT22;30418;51.45933468;7.33152330;2022-11-04T13:28:19;15.50;61.20
9544;DHT22;30418;51.45933468;7.33152330;2022-11-04T13:30:55;15.50;60.90
9544;DHT22;30418;51.45933468;7.33152330;2022-11-04T13:33:34;15.50;60.80
9544;DHT22;30418;51.45933468;7.33152330;2022-11-04T13:36:14;15.50;60.70
9544;DHT22;30418;51.45933468;7.33152330;2022-11-04T13:38:52;15.50;60.60
9544;DHT22;30418;51.45933468;7.33152330;2022-11-04T13:41:37;15.40;60.60
9544;DHT22;30418;51.45933468;7.33152330;2022-11-04T13:44:14;15.50;60.70
9544;DHT22;30418;51.45933468;7.33152330;2022-11-04T13:46:48;15.50;60.60
9544;DHT22;30418;51.45933468;7.33152330;2022-11-04T13:49:22;15.40;60.40
9544;DHT22;30418;51.45933468;7.33152330;2022-11-04T13:52:03;15.40;61.20
9544;DHT22;30418;51.45933468;7.33152330;2022-11-04T13:54:41;15.40;60.10
9544;DHT22;30418;51.45933468;7.33152330;2022-11-04T13:57:14;15.40;60.10
9544;DHT22;30418;51.45933468;7.33152330;2022-11-04T14:00:06;15.40;60.10
9544;DHT22;30418;51.45933468;7.33152330;2022-11-04T14:02:48;15.30;59.90
9544;DHT22;30418;51.45933468;7.33152330;2022-11-04T14:06:01;15.30;60.00
9544;DHT22;30418;51.45933468;7.33152330;2022-11-04T14:08:33;15.30;60.40
9544;DHT22;30418;51.45933468;7.33152330;2022-11-04T14:11:09;15.30;60.50
9544;DHT22;30418;51.45933468;7.33152330;2022-11-04T14:13:44;15.30;60.40
9544;DHT22;30418;51.45933468;7.33152330;2022-11-04T14:16:43;15.40;60.60
9544;DHT22;30418;51.45933468;7.33152330;2022-11-04T14:22:33;15.30;60.80
9544;DHT22;30418;51.45933468;7.33152330;2022-11-04T14:25:22;15.30;60.80